sensor_id;sensor_type;location;lat;lon;timestamp;P1;durP1;ratioP1;P2;durP2;ratioP2
36709;SDS011;22694;51.040;3.684;2022-11-18T00:00:12;1.40;;;0.77;;
36709;SDS011;22694;51.040;3.684;2022-11-18T00:02:38;1.48;;;0.70;;
36709;SDS011;22694;51.040;3.684;2022-11-18T00:05:03;0.73;;;0.63;;
36709;SDS011;22694;51.040;3.684;2022-11-18T00:07:29;3.13;;;0.80;;
36709;SDS011;22694;51.040;3.684;2022-11-18T00:09:54;1.73;;;0.73;;
36709;SDS011;22694;51.040;3.684;2022-11-18T00:12:20;1.13;;;0.73;;
36709;SDS011;22694;51.040;3.684;2022-11-18T00:15:04;2.58;;;1.00;;
36709;SDS011;22694;51.040;3.684;2022-11-18T00:17:31;0.82;;;0.60;;
36709;SDS011;22694;51.040;3.684;2022-11-18T00:19:57;1.27;;;0.70;;
36709;SDS011;22694;51.040;3.684;2022-11-18T00:22:22;2.33;;;0.63;;
36709;SDS011;22694;51.040;3.684;2022-11-18T00:24:48;1.48;;;0.88;;
36709;SDS011;22694;51.040;3.684;2022-11-18T00:27:13;3.65;;;1.10;;
36709;SDS011;22694;51.040;3.684;2022-11-18T00:29:39;2.65;;;0.85;;
36709;SDS011;22694;51.040;3.684;2022-11-18T00:32:05;2.25;;;0.85;;
36709;SDS011;22694;51.040;3.684;2022-11-18T00:34:30;1.45;;;0.70;;
36709;SDS011;22694;51.040;3.684;2022-11-18T00:36:56;2.47;;;0.80;;
36709;SDS011;22694;51.040;3.684;2022-11-18T00:39:22;2.22;;;0.63;;
36709;SDS011;22694;51.040;3.684;2022-11-18T00:41:48;4.38;;;1.10;;
36709;SDS011;22694;51.040;3.684;2022-11-18T00:44:32;2.30;;;0.75;;
36709;SDS011;22694;51.040;3.684;2022-11-18T00:46:58;2.35;;;0.80;;
36709;SDS011;22694;51.040;3.684;2022-11-18T00:49:24;2.30;;;0.90;;
36709;SDS011;22694;51.040;3.684;2022-11-18T00:51:49;1.38;;;0.80;;
36709;SDS011;22694;51.040;3.684;2022-11-18T00:54:15;1.88;;;0.80;;
36709;SDS011;22694;51.040;3.684;2022-11-18T00:56:41;0.75;;;0.70;;
36709;SDS011;22694;51.040;3.684;2022-11-18T00:59:07;2.08;;;0.98;;
36709;SDS011;22694;51.040;3.684;2022-11-18T01:01:32;1.08;;;0.80;;
36709;SDS011;22694;51.040;3.684;2022-11-18T01:03:58;1.15;;;0.70;;
36709;SDS011;22694;51.040;3.684;2022-11-18T01:06:24;1.25;;;0.70;;
36709;SDS011;22694;51.040;3.684;2022-11-18T01:08:49;1.15;;;0.82;;
36709;SDS011;22694;51.040;3.684;2022-11-18T01:11:15;2.70;;;0.73;;
36709;SDS011;22694;51.040;3.684;2022-11-18T01:13:59;1.80;;;1.10;;
36709;SDS011;22694;51.040;3.684;2022-11-18T01:16:25;1.52;;;0.70;;
36709;SDS011;22694;51.040;3.684;2022-11-18T01:18:52;1.80;;;0.82;;
36709;SDS011;22694;51.040;3.684;2022-11-18T01:21:18;3.22;;;0.80;;
36709;SDS011;22694;51.040;3.684;2022-11-18T01:23:44;3.13;;;0.80;;
36709;SDS011;22694;51.040;3.684;2022-11-18T01:26:10;1.15;;;0.70;;
36709;SDS011;22694;51.040;3.684;2022-11-18T01:28:37;1.27;;;0.85;;
36709;SDS011;22694;51.040;3.684;2022-11-18T01:31:08;0.75;;;0.68;;
36709;SDS011;22694;51.040;3.684;2022-11-18T01:33:36;1.98;;;0.90;;
36709;SDS011;22694;51.040;3.684;2022-11-18T01:36:01;1.00;;;0.80;;
36709;SDS011;22694;51.040;3.684;2022-11-18T01:38:27;1.77;;;1.10;;
36709;SDS011;22694;51.040;3.684;2022-11-18T01:40:53;0.85;;;0.80;;
36709;SDS011;22694;51.040;3.684;2022-11-18T01:43:20;2.65;;;0.82;;
36709;SDS011;22694;51.040;3.684;2022-11-18T01:45:48;1.15;;;0.73;;
36709;SDS011;22694;51.040;3.684;2022-11-18T01:48:27;0.98;;;0.70;;
36709;SDS011;22694;51.040;3.684;2022-11-18T01:51:05;2.67;;;1.00;;
36709;SDS011;22694;51.040;3.684;2022-11-18T01:53:35;2.30;;;1.17;;
36709;SDS011;22694;51.040;3.684;2022-11-18T01:56:09;3.17;;;0.95;;
36709;SDS011;22694;51.040;3.684;2022-11-18T01:58:40;1.30;;;0.80;;
36709;SDS011;22694;51.040;3.684;2022-11-18T02:01:16;0.60;;;0.60;;
36709;SDS011;22694;51.040;3.684;2022-11-18T02:03:42;1.85;;;1.08;;
36709;SDS011;22694;51.040;3.684;2022-11-18T02:06:10;2.95;;;0.95;;
36709;SDS011;22694;51.040;3.684;2022-11-18T02:08:36;3.28;;;0.70;;
36709;SDS011;22694;51.040;3.684;2022-11-18T02:11:04;1.20;;;0.70;;
36709;SDS011;22694;51.040;3.684;2022-11-18T02:13:33;4.13;;;0.93;;
36709;SDS011;22694;51.040;3.684;2022-11-18T02:16:14;1.65;;;0.80;;
36709;SDS011;22694;51.040;3.684;2022-11-18T02:18:53;2.50;;;0.90;;
36709;SDS011;22694;51.040;3.684;2022-11-18T02:23:58;2.55;;;0.93;;
36709;SDS011;22694;51.040;3.684;2022-11-18T02:29:24;2.03;;;0.90;;
36709;SDS011;22694;51.040;3.684;2022-11-18T02:31:59;2.42;;;0.80;;
36709;SDS011;22694;51.040;3.684;2022-11-18T02:34:38;2.72;;;1.00;;
36709;SDS011;22694;51.040;3.684;2022-11-18T02:37:30;1.98;;;0.82;;
36709;SDS011;22694;51.040;3.684;2022-11-18T02:42:53;6.90;;;0.95;;
36709;SDS011;22694;51.040;3.684;2022-11-18T02:47:50;1.75;;;0.80;;
36709;SDS011;22694;51.040;3.684;2022-11-18T02:50:20;3.33;;;0.80;;
36709;SDS011;22694;51.040;3.684;2022-11-18T02:52:49;3.22;;;1.00;;
36709;SDS011;22694;51.040;3.684;2022-11-18T02:55:19;1.40;;;0.68;;
36709;SDS011;22694;51.040;3.684;2022-11-18T02:57:47;3.63;;;0.65;;
36709;SDS011;22694;51.040;3.684;2022-11-18T03:00:14;1.75;;;0.80;;
36709;SDS011;22694;51.040;3.684;2022-11-18T03:02:41;2.72;;;0.93;;
36709;SDS011;22694;51.040;3.684;2022-11-18T03:10:36;2.78;;;1.00;;
36709;SDS011;22694;51.040;3.684;2022-11-18T03:13:13;2.90;;;0.85;;
36709;SDS011;22694;51.040;3.684;2022-11-18T03:15:49;1.60;;;0.90;;
36709;SDS011;22694;51.040;3.684;2022-11-18T03:20:57;0.90;;;0.60;;
36709;SDS011;22694;51.040;3.684;2022-11-18T03:23:41;2.03;;;0.70;;
36709;SDS011;22694;51.040;3.684;2022-11-18T03:26:23;1.70;;;0.68;;
36709;SDS011;22694;51.040;3.684;2022-11-18T03:29:09;1.55;;;0.80;;
36709;SDS011;22694;51.040;3.684;2022-11-18T03:36:46;0.63;;;0.50;;
36709;SDS011;22694;51.040;3.684;2022-11-18T03:39:15;1.75;;;0.82;;
36709;SDS011;22694;51.040;3.684;2022-11-18T03:41:45;2.45;;;0.70;;
36709;SDS011;22694;51.040;3.684;2022-11-18T03:44:24;0.95;;;0.60;;
36709;SDS011;22694;51.040;3.684;2022-11-18T03:46:58;1.02;;;0.60;;
36709;SDS011;22694;51.040;3.684;2022-11-18T03:49:34;2.10;;;1.02;;
36709;SDS011;22694;51.040;3.684;2022-11-18T03:52:17;1.20;;;1.00;;
36709;SDS011;22694;51.040;3.684;2022-11-18T03:54:50;2.13;;;1.02;;
36709;SDS011;22694;51.040;3.684;2022-11-18T03:57:19;1.45;;;0.70;;
36709;SDS011;22694;51.040;3.684;2022-11-18T03:59:51;2.80;;;1.20;;
36709;SDS011;22694;51.040;3.684;2022-11-18T04:02:23;1.00;;;0.75;;
36709;SDS011;22694;51.040;3.684;2022-11-18T04:04:51;1.42;;;0.82;;
36709;SDS011;22694;51.040;3.684;2022-11-18T04:07:26;1.15;;;0.70;;
36709;SDS011;22694;51.040;3.684;2022-11-18T04:12:37;1.15;;;0.88;;
36709;SDS011;22694;51.040;3.684;2022-11-18T04:15:07;2.15;;;0.90;;
36709;SDS011;22694;51.040;3.684;2022-11-18T04:17:33;1.13;;;0.80;;
36709;SDS011;22694;51.040;3.684;2022-11-18T04:19:59;1.73;;;0.57;;
36709;SDS011;22694;51.040;3.684;2022-11-18T04:22:25;1.88;;;0.70;;
36709;SDS011;22694;51.040;3.684;2022-11-18T04:24:50;1.60;;;0.55;;
36709;SDS011;22694;51.040;3.684;2022-11-18T04:27:16;1.50;;;0.55;;
36709;SDS011;22694;51.040;3.684;2022-11-18T04:29:42;2.10;;;0.57;;
36709;SDS011;22694;51.040;3.684;2022-11-18T04:32:08;1.00;;;0.50;;
36709;SDS011;22694;51.040;3.684;2022-11-18T04:34:33;1.65;;;0.82;;
36709;SDS011;22694;51.040;3.684;2022-11-18T04:36:59;3.28;;;1.00;;
36709;SDS011;22694;51.040;3.684;2022-11-18T04:39:25;1.45;;;1.02;;
36709;SDS011;22694;51.040;3.684;2022-11-18T04:41:50;2.78;;;0.80;;
36709;SDS011;22694;51.040;3.684;2022-11-18T04:46:48;1.38;;;0.73;;
36709;SDS011;22694;51.040;3.684;2022-11-18T04:49:14;0.68;;;0.40;;
36709;SDS011;22694;51.040;3.684;2022-11-18T04:51:40;2.75;;;1.20;;
36709;SDS011;22694;51.040;3.684;2022-11-18T04:54:07;0.80;;;0.45;;
36709;SDS011;22694;51.040;3.684;2022-11-18T04:56:33;1.58;;;0.70;;
36709;SDS011;22694;51.040;3.684;2022-11-18T04:58:59;0.77;;;0.50;;
36709;SDS011;22694;51.040;3.684;2022-11-18T05:01:26;1.50;;;0.55;;
36709;SDS011;22694;51.040;3.684;2022-11-18T05:03:52;0.93;;;0.52;;
36709;SDS011;22694;51.040;3.684;2022-11-18T05:06:18;0.82;;;0.50;;
36709;SDS011;22694;51.040;3.684;2022-11-18T05:08:44;1.23;;;0.43;;
36709;SDS011;22694;51.040;3.684;2022-11-18T05:11:10;2.90;;;0.73;;
36709;SDS011;22694;51.040;3.684;2022-11-18T05:13:54;1.77;;;0.68;;
36709;SDS011;22694;51.040;3.684;2022-11-18T05:16:19;1.48;;;0.70;;
36709;SDS011;22694;51.040;3.684;2022-11-18T05:18:45;1.83;;;0.60;;
36709;SDS011;22694;51.040;3.684;2022-11-18T05:21:11;2.42;;;0.60;;
36709;SDS011;22694;51.040;3.684;2022-11-18T05:23:36;2.45;;;0.70;;
36709;SDS011;22694;51.040;3.684;2022-11-18T05:26:06;0.77;;;0.43;;
36709;SDS011;22694;51.040;3.684;2022-11-18T05:28:33;3.17;;;0.68;;
36709;SDS011;22694;51.040;3.684;2022-11-18T05:30:58;2.05;;;0.65;;
36709;SDS011;22694;51.040;3.684;2022-11-18T05:33:24;1.38;;;0.77;;
36709;SDS011;22694;51.040;3.684;2022-11-18T05:35:50;2.63;;;0.90;;
36709;SDS011;22694;51.040;3.684;2022-11-18T05:38:15;2.45;;;1.00;;
36709;SDS011;22694;51.040;3.684;2022-11-18T05:40:41;1.85;;;0.60;;
36709;SDS011;22694;51.040;3.684;2022-11-18T05:43:08;1.48;;;0.68;;
36709;SDS011;22694;51.040;3.684;2022-11-18T05:45:38;2.22;;;0.82;;
36709;SDS011;22694;51.040;3.684;2022-11-18T05:48:04;2.33;;;0.80;;
36709;SDS011;22694;51.040;3.684;2022-11-18T05:50:32;2.40;;;0.88;;
36709;SDS011;22694;51.040;3.684;2022-11-18T05:53:00;2.15;;;0.90;;
36709;SDS011;22694;51.040;3.684;2022-11-18T05:55:32;2.28;;;0.65;;
36709;SDS011;22694;51.040;3.684;2022-11-18T05:58:03;1.20;;;0.70;;
36709;SDS011;22694;51.040;3.684;2022-11-18T06:00:29;1.75;;;0.55;;
36709;SDS011;22694;51.040;3.684;2022-11-18T06:02:56;1.48;;;0.70;;
36709;SDS011;22694;51.040;3.684;2022-11-18T06:05:23;2.45;;;0.85;;
36709;SDS011;22694;51.040;3.684;2022-11-18T06:07:50;2.47;;;0.60;;
36709;SDS011;22694;51.040;3.684;2022-11-18T06:10:20;0.93;;;0.80;;
36709;SDS011;22694;51.040;3.684;2022-11-18T06:12:52;1.60;;;0.80;;
36709;SDS011;22694;51.040;3.684;2022-11-18T06:15:26;1.55;;;0.68;;
36709;SDS011;22694;51.040;3.684;2022-11-18T06:17:55;1.98;;;0.88;;
36709;SDS011;22694;51.040;3.684;2022-11-18T06:20:23;3.65;;;1.00;;
36709;SDS011;22694;51.040;3.684;2022-11-18T06:22:50;1.50;;;0.70;;
36709;SDS011;22694;51.040;3.684;2022-11-18T06:25:18;1.58;;;0.70;;
36709;SDS011;22694;51.040;3.684;2022-11-18T06:27:45;0.88;;;0.60;;
36709;SDS011;22694;51.040;3.684;2022-11-18T06:30:12;1.55;;;0.60;;
36709;SDS011;22694;51.040;3.684;2022-11-18T06:32:38;2.63;;;0.90;;
36709;SDS011;22694;51.040;3.684;2022-11-18T06:35:04;1.50;;;0.68;;
36709;SDS011;22694;51.040;3.684;2022-11-18T06:37:30;2.42;;;0.98;;
36709;SDS011;22694;51.040;3.684;2022-11-18T06:39:56;0.98;;;0.60;;
36709;SDS011;22694;51.040;3.684;2022-11-18T06:42:21;1.15;;;0.63;;
36709;SDS011;22694;51.040;3.684;2022-11-18T06:45:06;1.63;;;0.60;;
36709;SDS011;22694;51.040;3.684;2022-11-18T06:47:31;2.47;;;0.93;;
36709;SDS011;22694;51.040;3.684;2022-11-18T06:49:57;2.80;;;0.60;;
36709;SDS011;22694;51.040;3.684;2022-11-18T06:52:23;0.50;;;0.47;;
36709;SDS011;22694;51.040;3.684;2022-11-18T06:54:48;2.00;;;0.65;;
36709;SDS011;22694;51.040;3.684;2022-11-18T06:57:14;1.02;;;0.70;;
36709;SDS011;22694;51.040;3.684;2022-11-18T06:59:40;1.05;;;0.90;;
36709;SDS011;22694;51.040;3.684;2022-11-18T07:02:05;2.92;;;1.02;;
36709;SDS011;22694;51.040;3.684;2022-11-18T07:04:31;1.30;;;0.82;;
36709;SDS011;22694;51.040;3.684;2022-11-18T07:06:58;1.73;;;0.85;;
36709;SDS011;22694;51.040;3.684;2022-11-18T07:09:24;0.60;;;0.60;;
36709;SDS011;22694;51.040;3.684;2022-11-18T07:11:50;1.45;;;0.60;;
36709;SDS011;22694;51.040;3.684;2022-11-18T07:14:15;1.50;;;0.75;;
36709;SDS011;22694;51.040;3.684;2022-11-18T07:16:41;0.88;;;0.52;;
36709;SDS011;22694;51.040;3.684;2022-11-18T07:19:08;1.23;;;0.80;;
36709;SDS011;22694;51.040;3.684;2022-11-18T07:21:34;2.67;;;0.90;;
36709;SDS011;22694;51.040;3.684;2022-11-18T07:24:00;1.67;;;0.80;;
36709;SDS011;22694;51.040;3.684;2022-11-18T07:26:33;1.15;;;0.73;;
36709;SDS011;22694;51.040;3.684;2022-11-18T07:29:00;2.92;;;0.95;;
36709;SDS011;22694;51.040;3.684;2022-11-18T07:31:26;1.23;;;0.60;;
36709;SDS011;22694;51.040;3.684;2022-11-18T07:33:52;2.58;;;0.80;;
36709;SDS011;22694;51.040;3.684;2022-11-18T07:36:19;1.13;;;0.70;;
36709;SDS011;22694;51.040;3.684;2022-11-18T07:38:49;1.17;;;0.55;;
36709;SDS011;22694;51.040;3.684;2022-11-18T07:41:16;2.75;;;1.30;;
36709;SDS011;22694;51.040;3.684;2022-11-18T07:43:50;1.38;;;0.63;;
36709;SDS011;22694;51.040;3.684;2022-11-18T07:46:19;2.42;;;0.70;;
36709;SDS011;22694;51.040;3.684;2022-11-18T07:48:48;1.85;;;0.73;;
36709;SDS011;22694;51.040;3.684;2022-11-18T07:51:16;1.38;;;0.80;;
36709;SDS011;22694;51.040;3.684;2022-11-18T07:53:43;2.15;;;0.70;;
36709;SDS011;22694;51.040;3.684;2022-11-18T07:56:09;1.35;;;0.60;;
36709;SDS011;22694;51.040;3.684;2022-11-18T07:58:36;0.52;;;0.43;;
36709;SDS011;22694;51.040;3.684;2022-11-18T08:01:12;2.22;;;0.90;;
36709;SDS011;22694;51.040;3.684;2022-11-18T08:03:42;1.33;;;0.70;;
36709;SDS011;22694;51.040;3.684;2022-11-18T08:06:09;1.33;;;0.77;;
36709;SDS011;22694;51.040;3.684;2022-11-18T08:08:36;1.55;;;0.60;;
36709;SDS011;22694;51.040;3.684;2022-11-18T08:11:03;2.42;;;0.98;;
36709;SDS011;22694;51.040;3.684;2022-11-18T08:13:31;1.55;;;0.45;;
36709;SDS011;22694;51.040;3.684;2022-11-18T08:15:58;2.40;;;0.85;;
36709;SDS011;22694;51.040;3.684;2022-11-18T08:18:24;2.03;;;0.82;;
36709;SDS011;22694;51.040;3.684;2022-11-18T08:20:49;1.30;;;0.80;;
36709;SDS011;22694;51.040;3.684;2022-11-18T08:23:16;1.50;;;0.60;;
36709;SDS011;22694;51.040;3.684;2022-11-18T08:25:42;2.72;;;0.60;;
36709;SDS011;22694;51.040;3.684;2022-11-18T08:28:09;0.82;;;0.60;;
36709;SDS011;22694;51.040;3.684;2022-11-18T08:30:36;1.17;;;0.60;;
36709;SDS011;22694;51.040;3.684;2022-11-18T08:33:03;1.27;;;0.80;;
36709;SDS011;22694;51.040;3.684;2022-11-18T08:35:29;1.42;;;0.55;;
36709;SDS011;22694;51.040;3.684;2022-11-18T08:37:55;1.45;;;0.70;;
36709;SDS011;22694;51.040;3.684;2022-11-18T08:40:21;2.20;;;0.70;;
36709;SDS011;22694;51.040;3.684;2022-11-18T08:42:46;1.25;;;0.50;;
36709;SDS011;22694;51.040;3.684;2022-11-18T08:45:12;1.52;;;0.90;;
36709;SDS011;22694;51.040;3.684;2022-11-18T08:47:38;1.25;;;0.60;;
36709;SDS011;22694;51.040;3.684;2022-11-18T08:50:04;2.78;;;0.50;;
36709;SDS011;22694;51.040;3.684;2022-11-18T08:52:32;1.20;;;0.40;;
36709;SDS011;22694;51.040;3.684;2022-11-18T08:54:58;1.00;;;0.57;;
36709;SDS011;22694;51.040;3.684;2022-11-18T08:57:24;1.50;;;0.60;;
36709;SDS011;22694;51.040;3.684;2022-11-18T08:59:50;1.83;;;0.70;;
36709;SDS011;22694;51.040;3.684;2022-11-18T09:02:16;0.93;;;0.65;;
36709;SDS011;22694;51.040;3.684;2022-11-18T09:04:45;1.20;;;0.57;;
36709;SDS011;22694;51.040;3.684;2022-11-18T09:07:11;1.60;;;0.85;;
36709;SDS011;22694;51.040;3.684;2022-11-18T09:09:37;1.63;;;0.80;;
36709;SDS011;22694;51.040;3.684;2022-11-18T09:12:02;0.88;;;0.50;;
36709;SDS011;22694;51.040;3.684;2022-11-18T09:14:29;1.77;;;0.60;;
36709;SDS011;22694;51.040;3.684;2022-11-18T09:16:54;2.33;;;0.68;;
36709;SDS011;22694;51.040;3.684;2022-11-18T09:19:20;2.13;;;0.70;;
36709;SDS011;22694;51.040;3.684;2022-11-18T09:21:46;1.42;;;0.73;;
36709;SDS011;22694;51.040;3.684;2022-11-18T09:24:11;1.70;;;0.70;;
36709;SDS011;22694;51.040;3.684;2022-11-18T09:26:37;2.40;;;0.80;;
36709;SDS011;22694;51.040;3.684;2022-11-18T09:29:03;2.10;;;0.80;;
36709;SDS011;22694;51.040;3.684;2022-11-18T09:31:28;2.08;;;0.82;;
36709;SDS011;22694;51.040;3.684;2022-11-18T09:33:54;4.03;;;0.82;;
36709;SDS011;22694;51.040;3.684;2022-11-18T09:36:23;2.15;;;0.90;;
36709;SDS011;22694;51.040;3.684;2022-11-18T09:38:50;2.78;;;0.70;;
36709;SDS011;22694;51.040;3.684;2022-11-18T09:46:50;2.47;;;0.80;;
36709;SDS011;22694;51.040;3.684;2022-11-18T09:49:36;2.58;;;0.90;;
36709;SDS011;22694;51.040;3.684;2022-11-18T09:52:04;2.65;;;1.00;;
36709;SDS011;22694;51.040;3.684;2022-11-18T09:54:40;1.58;;;0.75;;
36709;SDS011;22694;51.040;3.684;2022-11-18T09:57:10;2.17;;;0.80;;
36709;SDS011;22694;51.040;3.684;2022-11-18T09:59:40;1.27;;;0.57;;
36709;SDS011;22694;51.040;3.684;2022-11-18T10:04:59;0.98;;;0.88;;
36709;SDS011;22694;51.040;3.684;2022-11-18T10:07:40;1.70;;;0.70;;
36709;SDS011;22694;51.040;3.684;2022-11-18T10:10:18;2.10;;;1.05;;
36709;SDS011;22694;51.040;3.684;2022-11-18T10:12:56;2.72;;;0.90;;
36709;SDS011;22694;51.040;3.684;2022-11-18T10:15:35;1.30;;;0.70;;
36709;SDS011;22694;51.040;3.684;2022-11-18T10:24:01;1.33;;;0.90;;
36709;SDS011;22694;51.040;3.684;2022-11-18T10:26:37;1.30;;;0.70;;
36709;SDS011;22694;51.040;3.684;2022-11-18T10:29:05;1.23;;;0.80;;
36709;SDS011;22694;51.040;3.684;2022-11-18T10:31:55;1.75;;;0.68;;
36709;SDS011;22694;51.040;3.684;2022-11-18T10:34:28;1.25;;;0.77;;
36709;SDS011;22694;51.040;3.684;2022-11-18T10:36:57;1.27;;;0.80;;
36709;SDS011;22694;51.040;3.684;2022-11-18T10:39:52;1.83;;;0.88;;
36709;SDS011;22694;51.040;3.684;2022-11-18T10:50:27;0.85;;;0.68;;
36709;SDS011;22694;51.040;3.684;2022-11-18T10:53:04;2.77;;;1.17;;
36709;SDS011;22694;51.040;3.684;2022-11-18T10:55:31;2.20;;;0.80;;
36709;SDS011;22694;51.040;3.684;2022-11-18T10:58:01;1.35;;;0.77;;
36709;SDS011;22694;51.040;3.684;2022-11-18T11:00:38;1.70;;;0.70;;
36709;SDS011;22694;51.040;3.684;2022-11-18T11:03:23;2.72;;;0.70;;
36709;SDS011;22694;51.040;3.684;2022-11-18T11:08:51;2.28;;;0.80;;
36709;SDS011;22694;51.040;3.684;2022-11-18T11:11:21;4.10;;;0.90;;
36709;SDS011;22694;51.040;3.684;2022-11-18T11:14:18;8.77;;;2.35;;
36709;SDS011;22694;51.040;3.684;2022-11-18T11:16:50;41.47;;;15.50;;
36709;SDS011;22694;51.040;3.684;2022-11-18T11:19:22;79.97;;;25.25;;
36709;SDS011;22694;51.040;3.684;2022-11-18T11:21:50;56.65;;;21.33;;
36709;SDS011;22694;51.040;3.684;2022-11-18T11:24:16;44.67;;;18.92;;
36709;SDS011;22694;51.040;3.684;2022-11-18T11:26:52;45.25;;;22.98;;
36709;SDS011;22694;51.040;3.684;2022-11-18T11:34:42;24.80;;;12.25;;
36709;SDS011;22694;51.040;3.684;2022-11-18T11:45:23;20.33;;;9.40;;
36709;SDS011;22694;51.040;3.684;2022-11-18T12:06:54;13.52;;;6.82;;
36709;SDS011;22694;51.040;3.684;2022-11-18T12:14:56;14.38;;;6.55;;
36709;SDS011;22694;51.040;3.684;2022-11-18T12:18:01;13.82;;;6.53;;
36709;SDS011;22694;51.040;3.684;2022-11-18T12:20:44;14.38;;;6.78;;
36709;SDS011;22694;51.040;3.684;2022-11-18T12:28:27;12.25;;;5.18;;
36709;SDS011;22694;51.040;3.684;2022-11-18T12:36:35;9.05;;;5.13;;
36709;SDS011;22694;51.040;3.684;2022-11-18T12:41:51;8.80;;;4.53;;
36709;SDS011;22694;51.040;3.684;2022-11-18T12:44:43;10.18;;;4.57;;
36709;SDS011;22694;51.040;3.684;2022-11-18T12:47:14;8.05;;;3.85;;
36709;SDS011;22694;51.040;3.684;2022-11-18T12:54:54;8.75;;;4.28;;
36709;SDS011;22694;51.040;3.684;2022-11-18T12:57:22;9.15;;;4.22;;
36709;SDS011;22694;51.040;3.684;2022-11-18T12:59:51;6.78;;;3.58;;
36709;SDS011;22694;51.040;3.684;2022-11-18T13:02:19;7.72;;;3.53;;
36709;SDS011;22694;51.040;3.684;2022-11-18T13:07:30;10.13;;;3.57;;
36709;SDS011;22694;51.040;3.684;2022-11-18T13:10:21;5.43;;;3.60;;
36709;SDS011;22694;51.040;3.684;2022-11-18T13:12:50;5.93;;;2.55;;
36709;SDS011;22694;51.040;3.684;2022-11-18T13:15:17;6.10;;;3.10;;
36709;SDS011;22694;51.040;3.684;2022-11-18T13:18:06;6.75;;;3.15;;
36709;SDS011;22694;51.040;3.684;2022-11-18T13:20:38;5.95;;;3.03;;
36709;SDS011;22694;51.040;3.684;2022-11-18T13:25:53;7.03;;;2.92;;
36709;SDS011;22694;51.040;3.684;2022-11-18T13:31:19;4.30;;;2.63;;
36709;SDS011;22694;51.040;3.684;2022-11-18T13:33:59;5.32;;;2.83;;
36709;SDS011;22694;51.040;3.684;2022-11-18T13:36:46;5.10;;;2.38;;
36709;SDS011;22694;51.040;3.684;2022-11-18T13:42:19;3.90;;;2.22;;
36709;SDS011;22694;51.040;3.684;2022-11-18T13:44:51;4.90;;;2.33;;
36709;SDS011;22694;51.040;3.684;2022-11-18T13:49:58;4.70;;;2.33;;
36709;SDS011;22694;51.040;3.684;2022-11-18T13:55:07;4.85;;;2.42;;
36709;SDS011;22694;51.040;3.684;2022-11-18T13:57:40;4.03;;;1.98;;
36709;SDS011;22694;51.040;3.684;2022-11-18T14:00:18;4.25;;;2.30;;
36709;SDS011;22694;51.040;3.684;2022-11-18T14:03:25;5.07;;;2.20;;
36709;SDS011;22694;51.040;3.684;2022-11-18T14:05:56;4.18;;;2.05;;
36709;SDS011;22694;51.040;3.684;2022-11-18T14:08:27;4.57;;;1.98;;
36709;SDS011;22694;51.040;3.684;2022-11-18T14:10:54;3.83;;;2.10;;
36709;SDS011;22694;51.040;3.684;2022-11-18T14:13:25;3.60;;;1.92;;
36709;SDS011;22694;51.040;3.684;2022-11-18T14:15:58;4.00;;;1.92;;
36709;SDS011;22694;51.040;3.684;2022-11-18T14:18:44;3.65;;;1.65;;
36709;SDS011;22694;51.040;3.684;2022-11-18T14:21:11;4.05;;;1.70;;
36709;SDS011;22694;51.040;3.684;2022-11-18T14:23:40;4.18;;;1.90;;
36709;SDS011;22694;51.040;3.684;2022-11-18T14:26:07;5.25;;;1.60;;
36709;SDS011;22694;51.040;3.684;2022-11-18T14:28:34;4.40;;;2.00;;
36709;SDS011;22694;51.040;3.684;2022-11-18T14:33:42;4.50;;;1.70;;
36709;SDS011;22694;51.040;3.684;2022-11-18T14:36:48;2.53;;;1.13;;
36709;SDS011;22694;51.040;3.684;2022-11-18T14:39:25;2.22;;;1.25;;
36709;SDS011;22694;51.040;3.684;2022-11-18T14:41:55;2.83;;;1.45;;
36709;SDS011;22694;51.040;3.684;2022-11-18T14:44:22;3.10;;;1.38;;
36709;SDS011;22694;51.040;3.684;2022-11-18T14:46:50;2.03;;;1.33;;
36709;SDS011;22694;51.040;3.684;2022-11-18T14:49:23;2.03;;;1.15;;
36709;SDS011;22694;51.040;3.684;2022-11-18T14:51:50;1.75;;;1.08;;
36709;SDS011;22694;51.040;3.684;2022-11-18T14:54:18;2.60;;;1.45;;
36709;SDS011;22694;51.040;3.684;2022-11-18T14:56:46;1.73;;;1.50;;
36709;SDS011;22694;51.040;3.684;2022-11-18T14:59:14;2.75;;;1.25;;
36709;SDS011;22694;51.040;3.684;2022-11-18T15:01:41;3.75;;;1.52;;
36709;SDS011;22694;51.040;3.684;2022-11-18T15:04:07;2.95;;;1.40;;
36709;SDS011;22694;51.040;3.684;2022-11-18T15:06:33;2.60;;;1.40;;
36709;SDS011;22694;51.040;3.684;2022-11-18T15:08:58;2.70;;;1.60;;
36709;SDS011;22694;51.040;3.684;2022-11-18T15:11:24;2.65;;;1.40;;
36709;SDS011;22694;51.040;3.684;2022-11-18T15:13:50;1.90;;;1.10;;
36709;SDS011;22694;51.040;3.684;2022-11-18T15:16:16;2.45;;;1.00;;
36709;SDS011;22694;51.040;3.684;2022-11-18T15:18:43;2.33;;;1.20;;
36709;SDS011;22694;51.040;3.684;2022-11-18T15:21:10;1.52;;;1.10;;
36709;SDS011;22694;51.040;3.684;2022-11-18T15:23:36;2.17;;;1.10;;
36709;SDS011;22694;51.040;3.684;2022-11-18T15:26:04;1.90;;;1.00;;
36709;SDS011;22694;51.040;3.684;2022-11-18T15:28:43;2.22;;;0.93;;
36709;SDS011;22694;51.040;3.684;2022-11-18T15:31:10;3.47;;;1.30;;
36709;SDS011;22694;51.040;3.684;2022-11-18T15:33:35;2.45;;;1.30;;
36709;SDS011;22694;51.040;3.684;2022-11-18T15:36:01;2.42;;;1.10;;
36709;SDS011;22694;51.040;3.684;2022-11-18T15:38:27;1.70;;;0.93;;
36709;SDS011;22694;51.040;3.684;2022-11-18T15:40:52;1.33;;;0.90;;
36709;SDS011;22694;51.040;3.684;2022-11-18T15:43:18;1.73;;;1.10;;
36709;SDS011;22694;51.040;3.684;2022-11-18T15:45:43;1.88;;;1.13;;
36709;SDS011;22694;51.040;3.684;2022-11-18T15:48:09;1.48;;;0.90;;
36709;SDS011;22694;51.040;3.684;2022-11-18T15:50:34;2.47;;;1.02;;
36709;SDS011;22694;51.040;3.684;2022-11-18T15:53:00;1.35;;;0.80;;
36709;SDS011;22694;51.040;3.684;2022-11-18T15:55:25;2.45;;;1.20;;
36709;SDS011;22694;51.040;3.684;2022-11-18T15:57:51;1.30;;;1.10;;
36709;SDS011;22694;51.040;3.684;2022-11-18T16:00:17;2.83;;;1.30;;
36709;SDS011;22694;51.040;3.684;2022-11-18T16:02:43;1.33;;;0.90;;
36709;SDS011;22694;51.040;3.684;2022-11-18T16:05:08;1.33;;;0.90;;
36709;SDS011;22694;51.040;3.684;2022-11-18T16:07:34;1.30;;;0.98;;
36709;SDS011;22694;51.040;3.684;2022-11-18T16:09:59;2.65;;;1.17;;
36709;SDS011;22694;51.040;3.684;2022-11-18T16:12:43;1.92;;;1.17;;
36709;SDS011;22694;51.040;3.684;2022-11-18T16:15:12;1.42;;;1.00;;
36709;SDS011;22694;51.040;3.684;2022-11-18T16:17:57;3.22;;;1.65;;
36709;SDS011;22694;51.040;3.684;2022-11-18T16:20:24;5.05;;;2.83;;
36709;SDS011;22694;51.040;3.684;2022-11-18T16:22:49;5.97;;;2.33;;
36709;SDS011;22694;51.040;3.684;2022-11-18T16:25:21;3.83;;;2.05;;
36709;SDS011;22694;51.040;3.684;2022-11-18T16:27:47;4.10;;;1.83;;
36709;SDS011;22694;51.040;3.684;2022-11-18T16:30:13;3.88;;;1.75;;
36709;SDS011;22694;51.040;3.684;2022-11-18T16:32:57;3.58;;;2.08;;
36709;SDS011;22694;51.040;3.684;2022-11-18T16:35:23;3.83;;;1.50;;
36709;SDS011;22694;51.040;3.684;2022-11-18T16:37:49;4.35;;;1.80;;
36709;SDS011;22694;51.040;3.684;2022-11-18T16:40:15;3.90;;;2.08;;
36709;SDS011;22694;51.040;3.684;2022-11-18T16:42:40;2.35;;;1.65;;
36709;SDS011;22694;51.040;3.684;2022-11-18T16:45:06;2.60;;;1.63;;
36709;SDS011;22694;51.040;3.684;2022-11-18T16:47:32;3.13;;;1.83;;
36709;SDS011;22694;51.040;3.684;2022-11-18T16:49:57;3.28;;;1.50;;
36709;SDS011;22694;51.040;3.684;2022-11-18T16:52:23;3.42;;;1.58;;
36709;SDS011;22694;51.040;3.684;2022-11-18T16:54:48;3.85;;;1.80;;
36709;SDS011;22694;51.040;3.684;2022-11-18T16:57:15;2.65;;;1.65;;
36709;SDS011;22694;51.040;3.684;2022-11-18T16:59:40;3.75;;;1.70;;
36709;SDS011;22694;51.040;3.684;2022-11-18T17:02:06;2.40;;;1.17;;
36709;SDS011;22694;51.040;3.684;2022-11-18T17:04:34;2.08;;;1.45;;
36709;SDS011;22694;51.040;3.684;2022-11-18T17:07:02;1.83;;;1.30;;
36709;SDS011;22694;51.040;3.684;2022-11-18T17:09:28;2.95;;;1.67;;
36709;SDS011;22694;51.040;3.684;2022-11-18T17:11:54;1.67;;;1.10;;